Time;durP1;ratioP1;P1;durP2;ratioP2;P2;SDS_P1;SDS_P2;PMS_P1;PMS_P2;Temp;Humidity;BMP_temperature;BMP_pressure;BME280_temperature;BME280_humidity;BME280_pressure;Samples;Min_cycle;Max_cycle;Signal;HPM_P1;HPM_P2
2022/05/30 00:00:40;;;;;;;1.70;1.60;;;15.90;99.90;;;;;;5091262;28;20196;-44
2022/05/30 00:03:07;;;;;;;1.60;1.50;;;15.80;99.90;;;;;;5092240;28;20192;-43
2022/05/30 00:05:35;;;;;;;1.60;1.50;;;15.80;99.90;;;;;;5092118;28;20204;-44
2022/05/30 00:08:02;;;;;;;1.60;1.50;;;15.80;99.90;;;;;;5090927;28;20207;-43
2022/05/30 00:10:30;;;;;;;1.50;1.40;;;15.80;99.90;;;;;;5092540;28;20200;-43
2022/05/30 00:12:58;;;;;;;1.20;1.20;;;15.80;99.90;;;;;;5091017;28;20224;-51
2022/05/30 00:15:26;;;;;;;1.43;1.40;;;15.80;99.90;;;;;;5090547;28;20189;-52
2022/05/30 00:17:57;;;;;;;1.20;1.20;;;15.80;99.90;;;;;;5091436;28;20312;-49
2022/05/30 00:20:24;;;;;;;1.83;1.33;;;15.80;99.90;;;;;;5091955;28;20201;-52
2022/05/30 00:22:52;;;;;;;1.10;1.10;;;15.80;99.90;;;;;;5085551;28;20193;-51
2022/05/30 00:25:19;;;;;;;1.33;1.30;;;15.80;99.90;;;;;;5073268;28;20612;-49
2022/05/30 00:27:47;;;;;;;1.50;1.40;;;15.80;99.90;;;;;;5090415;28;20197;-51
2022/05/30 00:30:17;;;;;;;1.37;1.37;;;15.80;99.90;;;;;;5091958;28;20827;-49
2022/05/30 00:32:44;;;;;;;1.77;1.67;;;15.80;99.90;;;;;;5090827;28;20200;-52
2022/05/30 00:35:13;;;;;;;1.70;1.60;;;15.80;99.90;;;;;;5091746;28;20554;-52
2022/05/30 00:37:40;;;;;;;1.43;1.33;;;15.70;99.90;;;;;;5089900;28;20197;-51
2022/05/30 00:40:08;;;;;;;1.50;1.40;;;15.80;99.90;;;;;;5092407;28;20204;-46
2022/05/30 00:42:35;;;;;;;1.23;1.17;;;15.80;99.90;;;;;;5082220;28;20267;-49
2022/05/30 00:45:03;;;;;;;1.30;1.30;;;15.80;99.90;;;;;;5073337;28;20259;-48
2022/05/30 00:47:32;;;;;;;1.00;1.00;;;15.80;99.90;;;;;;5083735;28;20298;-50
2022/05/30 00:49:59;;;;;;;1.20;1.20;;;15.80;99.90;;;;;;5091401;28;20270;-49
2022/05/30 00:52:29;;;;;;;1.13;1.03;;;15.90;99.90;;;;;;5067002;28;20198;-48
2022/05/30 00:54:59;;;;;;;1.93;1.30;;;15.80;99.90;;;;;;5089522;28;20193;-48
2022/05/30 00:57:30;;;;;;;1.30;1.20;;;15.90;99.90;;;;;;5089663;28;20215;-52
2022/05/30 01:00:00;;;;;;;1.30;1.20;;;15.80;99.90;;;;;;5073393;28;20701;-52
2022/05/30 01:02:34;;;;;;;1.30;1.20;;;15.80;99.90;;;;;;5065782;28;20639;-52
2022/05/30 01:07:48;;;;;;;1.30;1.20;;;15.90;99.90;;;;;;5087986;28;20184;-50
2022/05/30 01:10:18;;;;;;;1.33;1.23;;;15.90;99.90;;;;;;5071346;28;20279;-50
2022/05/30 01:12:52;;;;;;;1.30;1.20;;;15.90;99.90;;;;;;5088981;28;20192;-48
2022/05/30 01:15:21;;;;;;;1.17;1.17;;;15.80;99.90;;;;;;5071783;28;20200;-45
2022/05/30 01:17:56;;;;;;;1.40;1.30;;;15.80;99.90;;;;;;5069497;28;20622;-51
2022/05/30 01:20:44;;;;;;;1.27;1.17;;;15.80;99.90;;;;;;5065241;28;20295;-45
2022/05/30 01:23:38;;;;;;;1.07;1.07;;;15.80;99.90;;;;;;5071174;28;20279;-45
2022/05/30 01:26:25;;;;;;;1.30;1.30;;;15.80;99.90;;;;;;5068688;28;20216;-48
2022/05/30 01:29:04;;;;;;;1.90;1.80;;;15.80;99.90;;;;;;5071288;28;20219;-49
2022/05/30 01:31:32;;;;;;;2.20;2.10;;;15.70;99.90;;;;;;5070235;28;20567;-49
2022/05/30 01:34:00;;;;;;;2.10;2.00;;;15.80;99.90;;;;;;5070950;28;20693;-48
2022/05/30 01:36:30;;;;;;;1.70;1.60;;;15.70;99.90;;;;;;5059655;28;20331;-43
2022/05/30 01:38:57;;;;;;;1.50;1.40;;;15.80;99.90;;;;;;5070407;28;20208;-45
2022/05/30 01:41:42;;;;;;;1.60;1.50;;;15.70;99.90;;;;;;5064135;28;21079;-52
2022/05/30 01:44:11;;;;;;;1.10;1.10;;;15.70;99.90;;;;;;5070902;28;20322;-50
2022/05/30 01:46:38;;;;;;;1.17;1.17;;;15.70;99.90;;;;;;5081194;28;20190;-44
2022/05/30 01:49:06;;;;;;;1.30;1.30;;;15.80;99.90;;;;;;5070875;28;20262;-44
2022/05/30 01:51:34;;;;;;;1.30;1.20;;;15.70;99.90;;;;;;5086563;28;20200;-48
2022/05/30 01:54:06;;;;;;;1.20;1.20;;;15.80;99.90;;;;;;5070376;28;20196;-48
2022/05/30 01:56:52;;;;;;;1.37;1.30;;;15.80;99.90;;;;;;5087313;28;21143;-48
2022/05/30 01:59:24;;;;;;;1.87;1.30;;;15.80;99.90;;;;;;5071013;28;20253;-47
2022/05/30 02:02:12;;;;;;;1.43;1.33;;;15.80;99.90;;;;;;5041295;28;1327181;-43
2022/05/30 02:04:40;;;;;;;1.60;1.50;;;15.80;99.90;;;;;;5070379;28;20223;-49
2022/05/30 02:07:07;;;;;;;1.53;1.53;;;15.70;99.90;;;;;;5087732;28;20669;-48
2022/05/30 02:09:35;;;;;;;2.43;2.27;;;15.70;99.90;;;;;;5068259;28;20204;-49
2022/05/30 02:12:02;;;;;;;2.10;2.00;;;15.80;99.90;;;;;;5070597;28;20250;-46
2022/05/30 02:14:44;;;;;;;1.80;1.70;;;15.70;99.90;;;;;;5089997;28;20192;-46
2022/05/30 02:17:11;;;;;;;1.80;1.70;;;15.80;99.90;;;;;;5089012;28;20200;-44
2022/05/30 02:19:41;;;;;;;2.10;2.00;;;15.70;99.90;;;;;;5070745;28;20228;-44
2022/05/30 02:22:12;;;;;;;1.47;1.47;;;15.80;99.90;;;;;;5088492;28;20655;-47
2022/05/30 02:24:40;;;;;;;1.80;1.70;;;15.80;99.90;;;;;;5089145;28;20262;-49
2022/05/30 02:27:08;;;;;;;1.60;1.50;;;15.80;99.90;;;;;;5089113;28;20196;-45
2022/05/30 02:29:35;;;;;;;1.70;1.60;;;15.80;99.90;;;;;;5068650;28;20196;-47
2022/05/30 02:32:07;;;;;;;1.60;1.40;;;15.80;99.90;;;;;;5071127;28;20577;-43
2022/05/30 02:37:23;;;;;;;1.30;1.30;;;15.70;99.90;;;;;;5064280;28;20202;-46
2022/05/30 02:39:52;;;;;;;1.33;1.27;;;15.70;99.90;;;;;;5071674;28;20192;-47
2022/05/30 02:42:38;;;;;;;1.80;1.50;;;15.70;99.90;;;;;;5088079;28;20329;-44
2022/05/30 02:45:06;;;;;;;1.00;1.00;;;15.70;99.90;;;;;;5063117;28;20212;-46
2022/05/30 02:47:35;;;;;;;1.00;1.00;;;15.70;99.90;;;;;;5070744;28;20200;-50
2022/05/30 02:50:09;;;;;;;1.00;1.00;;;15.70;99.90;;;;;;5071047;28;20204;-42
2022/05/30 02:52:36;;;;;;;1.20;1.20;;;15.70;99.90;;;;;;5068573;28;20618;-43
2022/05/30 02:55:06;;;;;;;1.67;1.57;;;15.70;99.90;;;;;;5072970;28;20207;-43
2022/05/30 02:57:53;;;;;;;1.43;1.33;;;15.70;99.90;;;;;;5090812;28;20655;-43
2022/05/30 03:00:26;;;;;;;1.60;1.53;;;15.80;99.90;;;;;;5075466;28;20220;-42
2022/05/30 03:02:57;;;;;;;1.43;1.40;;;15.70;99.90;;;;;;5074438;28;20204;-43
2022/05/30 03:05:25;;;;;;;1.50;1.40;;;15.70;99.90;;;;;;5074233;28;20205;-44
2022/05/30 03:07:52;;;;;;;1.43;1.40;;;15.70;99.90;;;;;;5083666;28;20307;-42
2022/05/30 03:10:45;;;;;;;1.30;1.30;;;15.70;99.90;;;;;;5066391;28;20699;-56
2022/05/30 03:13:12;;;;;;;1.23;1.23;;;15.70;99.90;;;;;;5074109;28;20239;-51
2022/05/30 03:15:40;;;;;;;1.60;1.50;;;15.70;99.90;;;;;;5074876;28;20203;-49
2022/05/30 03:18:10;;;;;;;1.60;1.50;;;15.70;99.90;;;;;;5073875;28;20200;-51
2022/05/30 03:20:38;;;;;;;1.87;1.77;;;15.80;99.90;;;;;;5074690;28;20204;-48
2022/05/30 03:23:06;;;;;;;2.20;1.93;;;15.80;99.90;;;;;;5076218;28;20197;-47
2022/05/30 03:25:52;;;;;;;5.03;1.90;;;15.80;99.90;;;;;;5092101;28;20216;-47
2022/05/30 03:28:20;;;;;;;1.40;1.30;;;15.80;99.90;;;;;;5074275;28;20672;-49
2022/05/30 03:30:47;;;;;;;1.60;1.50;;;15.80;99.90;;;;;;5092678;28;20205;-50
2022/05/30 03:33:16;;;;;;;1.57;1.50;;;15.80;99.90;;;;;;5074319;28;20211;-49
2022/05/30 03:35:43;;;;;;;1.80;1.70;;;15.80;99.90;;;;;;5092537;28;20254;-51
2022/05/30 03:38:38;;;;;;;2.20;1.80;;;15.70;99.90;;;;;;5066365;28;20530;-50
2022/05/30 03:41:24;;;;;;;1.70;1.60;;;15.70;99.90;;;;;;5091351;28;20207;-48
2022/05/30 03:44:03;;;;;;;1.67;1.57;;;15.70;99.90;;;;;;5074714;28;20208;-49
2022/05/30 03:46:32;;;;;;;1.70;1.60;;;15.70;99.90;;;;;;5073196;28;20258;-52
2022/05/30 03:49:01;;;;;;;1.80;1.70;;;15.70;99.90;;;;;;5062038;28;20242;-52
2022/05/30 03:51:29;;;;;;;1.23;1.23;;;15.70;99.90;;;;;;5071609;28;20654;-50
2022/05/30 03:53:56;;;;;;;1.90;1.80;;;15.70;99.90;;;;;;5074110;28;20537;-50
2022/05/30 03:56:23;;;;;;;2.30;2.10;;;15.70;99.90;;;;;;5091034;28;20220;-44
2022/05/30 03:58:50;;;;;;;2.30;2.20;;;15.70;99.90;;;;;;5071893;28;20665;-48
2022/05/30 04:01:18;;;;;;;1.60;1.50;;;15.70;99.90;;;;;;5073703;28;20243;-48
2022/05/30 04:03:46;;;;;;;2.03;1.93;;;15.70;99.90;;;;;;5092446;28;20273;-45
2022/05/30 04:06:14;;;;;;;2.57;2.37;;;15.70;99.90;;;;;;5089417;28;20260;-45
2022/05/30 04:08:42;;;;;;;2.23;2.13;;;15.70;99.90;;;;;;5073320;28;20671;-47
2022/05/30 04:11:28;;;;;;;2.63;2.03;;;15.70;99.90;;;;;;5086056;28;20203;-45
2022/05/30 04:14:14;;;;;;;1.70;1.60;;;15.70;99.90;;;;;;5092572;28;20281;-49
2022/05/30 04:16:55;;;;;;;1.97;1.80;;;15.70;99.90;;;;;;5073126;28;20671;-51
2022/05/30 04:19:22;;;;;;;1.90;1.80;;;15.70;99.90;;;;;;5092240;28;20630;-49
2022/05/30 04:21:50;;;;;;;1.97;1.87;;;15.70;99.90;;;;;;5071051;28;20200;-46
2022/05/30 04:24:26;;;;;;;2.00;1.90;;;15.70;99.90;;;;;;5069609;28;20208;-49
2022/05/30 04:26:58;;;;;;;1.90;1.80;;;15.70;99.90;;;;;;5073105;28;20672;-51
2022/05/30 04:29:26;;;;;;;2.03;1.87;;;15.60;99.90;;;;;;5074170;28;20204;-46
2022/05/30 04:32:17;;;;;;;2.50;2.23;;;15.70;99.90;;;;;;5077955;28;20232;-45
2022/05/30 04:34:44;;;;;;;3.93;2.30;;;15.70;99.90;;;;;;5091138;28;20205;-44
2022/05/30 04:37:15;;;;;;;3.33;2.30;;;15.70;99.90;;;;;;5071494;28;20687;-45
2022/05/30 04:39:46;;;;;;;4.13;3.73;;;15.70;99.90;;;;;;5073323;28;20201;-43
2022/05/30 04:42:31;;;;;;;4.70;3.30;;;15.70;99.90;;;;;;5090856;28;20734;-49
2022/05/30 04:45:21;;;;;;;2.90;2.57;;;15.60;99.90;;;;;;5091456;28;20224;-45
2022/05/30 04:48:08;;;;;;;2.53;2.33;;;15.50;99.90;;;;;;5088636;28;20204;-45
2022/05/30 04:50:35;;;;;;;2.37;2.20;;;15.50;99.90;;;;;;5091311;28;20660;-44
2022/05/30 04:53:03;;;;;;;1.93;1.83;;;15.50;99.90;;;;;;5071381;28;20204;-49
2022/05/30 04:55:51;;;;;;;2.00;1.90;;;15.50;99.90;;;;;;5075977;28;20208;-47
2022/05/30 04:58:30;;;;;;;2.00;1.90;;;15.50;99.90;;;;;;5071052;28;20680;-43
2022/05/30 05:01:08;;;;;;;1.93;1.83;;;15.40;99.90;;;;;;5072283;28;20960;-47
2022/05/30 05:03:37;;;;;;;3.50;1.73;;;15.40;99.90;;;;;;5073005;28;20201;-46
2022/05/30 05:06:07;;;;;;;1.53;1.43;;;15.40;99.90;;;;;;5070691;28;20213;-46
2022/05/30 05:08:44;;;;;;;1.33;1.33;;;15.40;99.90;;;;;;5090507;28;20580;-45
2022/05/30 05:11:37;;;;;;;1.50;1.40;;;15.40;99.90;;;;;;5085843;28;20200;-47
2022/05/30 05:14:22;;;;;;;1.73;1.40;;;15.40;99.90;;;;;;5090536;28;20204;-47
2022/05/30 05:17:10;;;;;;;1.60;1.50;;;15.40;99.90;;;;;;5078224;28;20221;-49
2022/05/30 05:19:39;;;;;;;1.60;1.50;;;15.50;99.90;;;;;;5072446;28;20538;-43
2022/05/30 05:22:07;;;;;;;1.70;1.60;;;15.50;99.90;;;;;;5070501;28;20624;-48
2022/05/30 05:24:37;;;;;;;2.10;1.67;;;15.50;99.90;;;;;;5071661;28;20297;-49
2022/05/30 05:27:17;;;;;;;1.33;1.33;;;15.50;99.90;;;;;;5090248;28;20197;-48
2022/05/30 05:29:46;;;;;;;1.80;1.30;;;15.60;99.90;;;;;;5072208;28;20200;-43
2022/05/30 05:32:15;;;;;;;1.13;1.13;;;15.60;99.90;;;;;;5072098;28;20288;-48
2022/05/30 05:34:43;;;;;;;2.83;1.80;;;15.50;99.90;;;;;;5071866;28;20302;-44
2022/05/30 05:37:11;;;;;;;1.60;1.50;;;15.60;99.90;;;;;;5070058;28;20204;-50
2022/05/30 05:39:50;;;;;;;1.97;1.53;;;15.60;99.90;;;;;;5072589;28;20293;-47
2022/05/30 05:42:17;;;;;;;2.10;2.00;;;15.60;99.90;;;;;;5089355;28;20668;-45
2022/05/30 05:44:45;;;;;;;1.70;1.60;;;15.60;99.90;;;;;;5060675;28;20197;-50
2022/05/30 05:47:13;;;;;;;1.60;1.50;;;15.70;99.90;;;;;;5070919;28;20243;-48
2022/05/30 05:49:40;;;;;;;1.50;1.40;;;15.60;99.90;;;;;;5071973;28;20217;-44
2022/05/30 05:52:08;;;;;;;1.50;1.40;;;15.60;99.90;;;;;;5070029;28;20276;-48
2022/05/30 05:54:36;;;;;;;1.90;1.50;;;15.60;99.90;;;;;;5071352;28;20721;-47
2022/05/30 05:57:07;;;;;;;1.87;1.50;;;15.70;99.90;;;;;;5070575;28;20204;-48
2022/05/30 05:59:40;;;;;;;2.57;2.17;;;15.70;99.90;;;;;;5089460;28;20283;-43
2022/05/30 06:02:08;;;;;;;2.67;1.97;;;15.70;99.90;;;;;;5071036;28;20625;-43
2022/05/30 06:04:38;;;;;;;1.80;1.70;;;15.70;99.90;;;;;;5071086;28;20687;-44
2022/05/30 06:07:34;;;;;;;1.87;1.50;;;15.70;99.90;;;;;;5012500;28;20643;-49
2022/05/30 06:10:15;;;;;;;1.30;1.20;;;15.70;99.90;;;;;;5071978;28;20204;-47
2022/05/30 06:12:58;;;;;;;1.60;1.50;;;15.60;99.90;;;;;;5069676;28;20208;-45
2022/05/30 06:15:28;;;;;;;1.80;1.70;;;15.70;99.90;;;;;;5071982;28;20200;-45
2022/05/30 06:18:04;;;;;;;4.33;2.90;;;15.70;99.90;;;;;;5070963;28;20208;-48
2022/05/30 06:20:31;;;;;;;3.27;3.07;;;15.70;99.90;;;;;;5071472;28;20200;-43
2022/05/30 06:22:58;;;;;;;3.73;3.43;;;15.70;99.90;;;;;;5071823;28;20193;-48
2022/05/30 06:25:44;;;;;;;2.93;2.73;;;15.70;99.90;;;;;;5088973;28;20712;-45
2022/05/30 06:28:31;;;;;;;3.50;3.30;;;15.70;99.90;;;;;;5059857;28;20199;-43
2022/05/30 06:31:15;;;;;;;4.40;3.70;;;15.80;99.90;;;;;;5070752;28;20559;-43
2022/05/30 06:33:43;;;;;;;4.73;4.20;;;15.80;99.90;;;;;;5069225;28;20593;-43
2022/05/30 06:36:16;;;;;;;3.37;3.17;;;15.80;99.90;;;;;;5068293;28;20207;-43
2022/05/30 06:38:43;;;;;;;6.43;3.73;;;15.80;99.90;;;;;;5088914;28;20679;-44
2022/05/30 06:41:22;;;;;;;3.87;3.50;;;15.80;99.90;;;;;;5068758;28;20632;-46
2022/05/30 06:43:53;;;;;;;3.60;3.30;;;15.90;99.90;;;;;;5070085;28;20216;-44
2022/05/30 06:46:39;;;;;;;4.63;3.93;;;15.90;99.90;;;;;;5086736;28;20705;-42
2022/05/30 06:49:25;;;;;;;4.47;4.07;;;15.90;99.90;;;;;;5082531;28;20203;-46
2022/05/30 06:51:58;;;;;;;4.83;4.43;;;15.90;99.90;;;;;;5067248;28;20696;-43
2022/05/30 06:54:25;;;;;;;4.73;4.27;;;15.90;99.90;;;;;;5088526;28;20283;-44
2022/05/30 06:59:38;;;;;;;6.70;4.47;;;16.00;99.90;;;;;;5063866;28;20204;-46
2022/05/30 07:02:08;;;;;;;7.67;4.27;;;16.00;99.90;;;;;;5086759;28;20236;-44
2022/05/30 07:05:05;;;;;;;4.30;3.87;;;16.00;99.90;;;;;;5073167;28;20493;-45
2022/05/30 07:07:55;;;;;;;3.60;3.30;;;16.00;99.90;;;;;;5079800;28;20249;-43
2022/05/30 07:10:37;;;;;;;3.40;2.93;;;16.00;99.90;;;;;;5066649;28;20196;-46
2022/05/30 07:13:21;;;;;;;2.70;2.50;;;16.00;99.90;;;;;;5069905;28;20208;-44
2022/05/30 07:15:51;;;;;;;6.50;2.60;;;16.00;99.90;;;;;;5088986;28;20212;-44
2022/05/30 07:18:25;;;;;;;2.87;2.67;;;16.00;99.90;;;;;;5083646;28;20660;-43
2022/05/30 07:20:59;;;;;;;3.43;2.60;;;16.00;99.90;;;;;;5067517;28;20196;-46
2022/05/30 07:23:29;;;;;;;2.20;2.10;;;16.00;99.90;;;;;;5081031;28;20644;-43
2022/05/30 07:26:19;;;;;;;2.30;2.10;;;16.00;99.90;;;;;;5086304;28;20401;-45
2022/05/30 07:29:06;;;;;;;2.60;2.40;;;16.00;99.90;;;;;;5089082;28;20664;-43
2022/05/30 07:32:10;;;;;;;7.10;2.70;;;16.00;99.90;;;;;;5086674;28;20204;-45
2022/05/30 07:34:56;;;;;;;5.37;3.20;;;16.10;99.90;;;;;;5087289;28;20236;-44
2022/05/30 07:37:43;;;;;;;4.20;3.90;;;16.10;99.90;;;;;;5085788;28;20229;-46
2022/05/30 07:40:16;;;;;;;4.57;4.17;;;16.10;99.90;;;;;;5089331;28;20276;-50
2022/05/30 07:42:55;;;;;;;3.93;3.63;;;16.10;99.90;;;;;;5067984;28;20265;-44
2022/05/30 07:45:41;;;;;;;4.63;4.23;;;16.20;99.90;;;;;;5089566;28;20701;-46
2022/05/30 07:48:42;;;;;;;8.07;5.53;;;16.20;99.90;;;;;;5066403;28;20284;-47
2022/05/30 07:51:32;;;;;;;5.13;4.63;;;16.20;99.90;;;;;;5034266;28;20205;-46
2022/05/30 07:54:13;;;;;;;4.67;4.03;;;16.20;99.90;;;;;;5073729;28;20204;-44
2022/05/30 07:56:56;;;;;;;4.10;3.70;;;16.20;99.90;;;;;;5072269;28;20273;-52
2022/05/30 07:59:23;;;;;;;4.57;3.37;;;16.30;99.90;;;;;;5073092;28;20200;-44
2022/05/30 08:01:50;;;;;;;3.47;3.17;;;16.20;99.90;;;;;;5072811;28;20245;-48
2022/05/30 08:04:19;;;;;;;6.10;3.63;;;16.20;99.90;;;;;;5071822;28;20658;-43
2022/05/30 08:06:46;;;;;;;3.93;3.23;;;16.20;99.90;;;;;;5086255;28;20212;-47
2022/05/30 08:09:45;;;;;;;3.37;3.10;;;16.20;99.90;;;;;;5046162;28;20216;-46
2022/05/30 08:12:16;;;;;;;2.73;2.57;;;16.20;99.90;;;;;;5072794;28;20206;-46
2022/05/30 08:15:05;;;;;;;4.37;2.80;;;16.20;99.90;;;;;;5089309;28;20204;-45
2022/05/30 08:17:55;;;;;;;3.43;3.13;;;16.10;99.90;;;;;;5088107;28;20646;-45
2022/05/30 08:20:26;;;;;;;3.27;3.07;;;16.10;99.90;;;;;;5073623;28;20257;-48
2022/05/30 08:22:54;;;;;;;2.43;2.23;;;16.10;99.90;;;;;;5073483;28;20216;-43
2022/05/30 08:25:23;;;;;;;2.20;2.10;;;16.00;99.90;;;;;;5060047;28;20692;-47
2022/05/30 08:27:51;;;;;;;2.67;2.30;;;16.00;99.90;;;;;;5089874;28;20215;-46
2022/05/30 08:30:21;;;;;;;2.17;2.00;;;15.90;99.90;;;;;;5060839;28;20233;-45
2022/05/30 08:33:17;;;;;;;2.00;1.90;;;15.90;99.90;;;;;;5090394;28;20209;-51
2022/05/30 08:36:16;;;;;;;1.97;1.87;;;16.00;99.90;;;;;;5064928;28;20200;-45
2022/05/30 08:38:44;;;;;;;1.73;1.63;;;16.00;99.90;;;;;;5072921;28;20295;-49
2022/05/30 08:44:13;;;;;;;1.60;1.50;;;16.10;99.90;;;;;;5072976;28;20189;-42
2022/05/30 08:47:07;;;;;;;5.57;1.47;;;16.10;99.90;;;;;;5080963;28;20209;-46
2022/05/30 08:49:42;;;;;;;1.43;1.17;;;16.10;99.90;;;;;;5071945;28;20216;-45
2022/05/30 08:52:43;;;;;;;1.37;1.27;;;16.10;99.90;;;;;;5080832;28;20197;-44
2022/05/30 08:55:24;;;;;;;1.17;1.13;;;16.20;99.90;;;;;;5063707;28;20686;-51
2022/05/30 08:58:04;;;;;;;1.10;1.10;;;16.20;99.90;;;;;;5068420;28;20208;-52
2022/05/30 09:00:37;;;;;;;0.90;0.90;;;16.20;99.90;;;;;;5068498;28;20675;-51
2022/05/30 09:03:28;;;;;;;0.73;0.73;;;16.30;99.90;;;;;;5090508;28;20288;-49
2022/05/30 09:05:59;;;;;;;0.80;0.80;;;16.30;99.90;;;;;;5067180;28;20213;-48
2022/05/30 09:08:33;;;;;;;0.77;0.77;;;16.30;99.90;;;;;;5071161;28;20209;-47
2022/05/30 09:11:32;;;;;;;0.70;0.70;;;16.40;99.90;;;;;;5088907;28;20210;-48
2022/05/30 09:14:11;;;;;;;0.73;0.73;;;16.40;99.90;;;;;;5084994;28;20474;-51
2022/05/30 09:16:47;;;;;;;0.77;0.70;;;16.40;99.90;;;;;;5085630;28;20611;-46
2022/05/30 09:19:19;;;;;;;0.80;0.80;;;16.50;99.90;;;;;;5071758;28;20611;-51
2022/05/30 09:21:47;;;;;;;2.03;1.00;;;16.50;99.90;;;;;;5068156;28;20650;-51
2022/05/30 09:24:17;;;;;;;0.80;0.80;;;16.60;99.90;;;;;;5074348;28;20557;-52
2022/05/30 09:26:44;;;;;;;0.90;0.90;;;16.70;99.90;;;;;;5069542;28;20220;-52
2022/05/30 09:29:22;;;;;;;0.77;0.77;;;16.80;99.90;;;;;;5064823;28;20252;-50
2022/05/30 09:32:17;;;;;;;0.93;0.93;;;16.90;99.90;;;;;;5089633;28;20208;-49
2022/05/30 09:34:49;;;;;;;0.67;0.67;;;17.00;99.90;;;;;;5089080;28;20220;-51
2022/05/30 09:37:38;;;;;;;1.10;1.10;;;17.10;99.90;;;;;;5087714;28;20244;-49
2022/05/30 09:40:37;;;;;;;0.90;0.90;;;17.20;99.90;;;;;;5090225;28;20203;-47
2022/05/30 09:43:30;;;;;;;1.00;1.00;;;17.30;99.90;;;;;;5079714;28;20327;-49
2022/05/30 09:46:15;;;;;;;0.70;0.70;;;17.30;99.90;;;;;;5070503;28;20203;-48
2022/05/30 09:49:04;;;;;;;1.13;1.03;;;17.40;99.90;;;;;;5090130;28;20201;-45
2022/05/30 09:51:33;;;;;;;0.93;0.93;;;17.50;99.90;;;;;;5067878;28;20725;-43
2022/05/30 09:54:09;;;;;;;0.70;0.70;;;17.40;99.90;;;;;;5070906;28;20758;-48
2022/05/30 09:56:43;;;;;;;0.90;0.80;;;17.50;99.90;;;;;;5069869;28;20204;-48
2022/05/30 09:59:30;;;;;;;0.90;0.90;;;17.50;99.90;;;;;;5071395;28;20956;-43
2022/05/30 10:02:22;;;;;;;4.03;0.97;;;17.50;99.90;;;;;;5068347;28;20254;-48
2022/05/30 10:04:56;;;;;;;0.80;0.80;;;17.60;99.90;;;;;;5070807;28;20210;-48
2022/05/30 10:07:24;;;;;;;1.25;0.75;;;17.70;99.90;;;;;;5065501;28;20215;-48
2022/05/30 10:09:58;;;;;;;1.67;1.02;;;17.80;99.90;;;;;;5059415;28;20214;-45
2022/05/30 10:12:41;;;;;;;1.27;0.90;;;17.90;99.90;;;;;;5069023;28;20282;-46
2022/05/30 10:15:29;;;;;;;0.70;0.70;;;17.90;99.90;;;;;;5070906;28;20334;-43
2022/05/30 10:18:29;;;;;;;0.90;0.90;;;17.90;99.90;;;;;;5070498;28;20227;-48
2022/05/30 10:21:13;;;;;;;1.20;1.10;;;17.90;99.90;;;;;;5088169;28;20626;-43
2022/05/30 10:30:23;;;;;;;0.73;0.73;;;17.70;99.90;;;;;;5077094;28;20206;-44
2022/05/30 10:33:13;;;;;;;0.85;0.80;;;17.70;99.90;;;;;;5089060;28;20210;-43
2022/05/30 10:35:47;;;;;;;1.00;1.00;;;17.70;99.90;;;;;;5069895;28;20216;-43
2022/05/30 10:38:28;;;;;;;0.88;0.88;;;17.80;99.90;;;;;;5069443;28;20235;-44
2022/05/30 10:41:09;;;;;;;0.90;0.90;;;17.90;99.90;;;;;;5070540;28;20690;-45
2022/05/30 10:43:50;;;;;;;0.80;0.80;;;17.90;99.90;;;;;;5077757;28;20214;-43
2022/05/30 10:46:26;;;;;;;0.83;0.80;;;17.90;99.90;;;;;;5085534;28;20191;-42
2022/05/30 10:49:01;;;;;;;0.82;0.65;;;17.90;99.90;;;;;;5070845;28;20253;-42
2022/05/30 10:51:42;;;;;;;0.65;0.65;;;17.90;99.90;;;;;;5081596;28;20915;-44
2022/05/30 10:54:16;;;;;;;0.70;0.70;;;17.90;99.90;;;;;;5070812;28;20210;-45
2022/05/30 10:57:18;;;;;;;0.70;0.70;;;17.90;99.90;;;;;;5069620;28;20187;-42
2022/05/30 10:59:52;;;;;;;1.02;1.02;;;18.00;99.90;;;;;;5068281;28;20210;-42
2022/05/30 11:02:29;;;;;;;1.58;1.48;;;18.00;99.90;;;;;;5069633;28;20333;-44
2022/05/30 11:05:02;;;;;;;1.63;1.53;;;17.90;99.90;;;;;;5070012;28;20798;-43
2022/05/30 11:07:49;;;;;;;2.05;1.40;;;17.80;99.90;;;;;;5068546;28;20214;-43
2022/05/30 11:10:32;;;;;;;1.30;1.30;;;17.70;99.90;;;;;;5087493;28;20231;-46
2022/05/30 11:13:09;;;;;;;1.33;1.23;;;17.70;99.90;;;;;;5069805;28;20303;-49
2022/05/30 11:15:46;;;;;;;1.20;1.20;;;17.60;99.90;;;;;;5068361;28;20212;-47
2022/05/30 11:18:42;;;;;;;1.20;1.20;;;17.60;99.90;;;;;;5088820;28;20571;-48
2022/05/30 11:21:32;;;;;;;0.77;0.77;;;17.60;99.90;;;;;;5088741;28;20319;-51
2022/05/30 11:24:02;;;;;;;1.20;1.10;;;17.60;99.90;;;;;;5078740;28;20717;-51
2022/05/30 11:26:54;;;;;;;0.93;0.93;;;17.60;99.90;;;;;;5090740;28;20715;-51
2022/05/30 11:29:34;;;;;;;1.50;1.10;;;17.60;99.90;;;;;;5093165;28;20191;-50
2022/05/30 11:32:04;;;;;;;1.17;1.17;;;17.70;99.90;;;;;;5080421;28;20199;-47
2022/05/30 11:34:49;;;;;;;1.10;1.10;;;17.70;99.90;;;;;;5092858;28;20195;-49
2022/05/30 11:37:47;;;;;;;1.20;1.20;;;17.70;99.90;;;;;;5089879;28;20202;-50
2022/05/30 11:40:25;;;;;;;1.48;1.20;;;17.80;99.90;;;;;;5081968;28;20215;-52
2022/05/30 11:43:10;;;;;;;1.60;1.50;;;18.00;99.90;;;;;;5091264;28;20207;-48
2022/05/30 11:45:54;;;;;;;1.57;1.47;;;18.00;99.90;;;;;;5090370;28;20223;-44
2022/05/30 11:48:30;;;;;;;1.40;1.30;;;18.10;99.90;;;;;;5088844;28;20314;-47
2022/05/30 11:51:10;;;;;;;1.23;1.23;;;18.20;99.90;;;;;;5091177;28;20256;-44
2022/05/30 11:54:22;;;;;;;1.10;1.10;;;18.30;99.90;;;;;;5089990;28;20206;-47
2022/05/30 11:56:58;;;;;;;1.20;1.10;;;18.40;99.90;;;;;;5081803;28;20659;-49
2022/05/30 11:59:44;;;;;;;1.33;1.00;;;18.50;99.90;;;;;;5091881;28;20192;-50
2022/05/30 12:02:17;;;;;;;1.10;1.10;;;18.50;99.90;;;;;;5084459;28;20698;-44
2022/05/30 12:05:16;;;;;;;1.05;1.05;;;18.60;99.90;;;;;;5091157;28;20228;-51
2022/05/30 12:08:13;;;;;;;1.45;1.35;;;18.70;99.90;;;;;;5088376;28;20239;-51
2022/05/30 12:11:09;;;;;;;1.08;1.08;;;18.70;99.90;;;;;;5091969;28;20759;-50
2022/05/30 12:13:59;;;;;;;1.00;1.00;;;18.80;99.90;;;;;;5082412;28;20333;-47
2022/05/30 12:16:45;;;;;;;1.30;1.20;;;18.90;99.90;;;;;;5090525;28;20257;-46
2022/05/30 12:25:49;;;;;;;0.85;0.85;;;18.80;99.90;;;;;;5089562;28;20193;-44
2022/05/30 12:28:54;;;;;;;0.90;0.90;;;18.70;99.90;;;;;;5079671;28;20283;-50
2022/05/30 12:31:38;;;;;;;1.00;1.00;;;18.70;99.90;;;;;;5066360;28;20204;-44
2022/05/30 12:34:07;;;;;;;4.82;0.93;;;18.60;99.90;;;;;;5091768;28;20663;-50
2022/05/30 12:36:41;;;;;;;0.80;0.80;;;18.70;99.90;;;;;;5086590;28;20648;-47
2022/05/30 12:39:34;;;;;;;0.90;0.90;;;18.70;99.90;;;;;;5091565;28;20605;-48
2022/05/30 12:42:08;;;;;;;1.20;1.10;;;18.70;99.90;;;;;;5080490;28;20197;-49
2022/05/30 12:44:58;;;;;;;1.10;1.10;;;18.70;99.90;;;;;;5091400;28;20193;-51
2022/05/30 12:47:31;;;;;;;1.20;1.00;;;18.80;99.90;;;;;;5089963;28;20288;-46
2022/05/30 12:50:43;;;;;;;0.90;0.90;;;18.70;99.90;;;;;;5089922;28;20199;-49
2022/05/30 12:53:11;;;;;;;1.10;1.10;;;18.70;99.90;;;;;;5064898;28;20216;-48
2022/05/30 12:55:40;;;;;;;1.13;1.10;;;18.60;99.90;;;;;;5090645;28;20193;-45
2022/05/30 12:58:11;;;;;;;0.80;0.80;;;18.70;99.90;;;;;;5089814;28;20536;-44
2022/05/30 13:00:55;;;;;;;1.10;1.10;;;18.70;99.90;;;;;;5091412;28;20279;-44
2022/05/30 13:03:44;;;;;;;1.00;1.00;;;18.80;99.90;;;;;;5086462;28;20721;-45
2022/05/30 13:06:19;;;;;;;1.58;1.20;;;18.80;99.90;;;;;;5088092;28;20193;-45
2022/05/30 13:09:16;;;;;;;2.15;1.27;;;18.80;99.90;;;;;;5090481;28;20196;-47
2022/05/30 13:12:19;;;;;;;1.00;1.00;;;18.70;99.90;;;;;;5083804;28;20230;-46
2022/05/30 13:15:22;;;;;;;1.02;1.02;;;18.70;99.90;;;;;;5089746;28;20192;-46
2022/05/30 13:18:05;;;;;;;0.95;0.95;;;18.60;99.90;;;;;;5083284;28;20212;-45
2022/05/30 13:20:46;;;;;;;0.88;0.88;;;18.60;99.90;;;;;;5085458;28;20295;-44
2022/05/30 13:23:16;;;;;;;1.15;1.15;;;18.60;99.90;;;;;;5069173;28;20196;-43
2022/05/30 13:25:47;;;;;;;1.30;1.20;;;18.60;99.90;;;;;;5083384;28;20652;-52
2022/05/30 13:28:22;;;;;;;1.60;1.50;;;18.60;99.90;;;;;;5089256;28;20240;-52
2022/05/30 13:30:50;;;;;;;1.30;1.30;;;18.50;99.90;;;;;;5090156;28;20199;-52
2022/05/30 13:33:23;;;;;;;1.40;1.30;;;18.50;99.90;;;;;;5090011;28;20192;-52
2022/05/30 13:35:53;;;;;;;0.85;0.85;;;18.30;99.90;;;;;;5089064;28;20196;-50
2022/05/30 13:38:28;;;;;;;1.05;1.05;;;18.30;99.90;;;;;;5085256;28;20192;-51
2022/05/30 13:40:55;;;;;;;1.42;1.30;;;18.30;99.90;;;;;;5090281;28;20198;-49
2022/05/30 13:43:33;;;;;;;0.70;0.70;;;18.10;99.90;;;;;;5070418;28;20250;-47
2022/05/30 13:46:00;;;;;;;0.80;0.80;;;18.10;99.90;;;;;;5087638;28;20246;-51
2022/05/30 13:48:29;;;;;;;1.00;1.00;;;18.00;99.90;;;;;;5090360;28;20211;-44
2022/05/30 13:51:00;;;;;;;0.80;0.80;;;18.00;99.90;;;;;;5089060;28;20559;-44
2022/05/30 13:53:32;;;;;;;0.70;0.70;;;17.90;99.70;;;;;;5088586;28;20744;-43
2022/05/30 13:56:01;;;;;;;0.80;0.80;;;17.90;99.70;;;;;;5089098;28;20220;-42
2022/05/30 13:58:30;;;;;;;0.70;0.70;;;17.90;99.70;;;;;;5089286;28;20193;-44
2022/05/30 14:01:01;;;;;;;0.60;0.60;;;17.80;99.60;;;;;;5089438;28;20766;-43